Time;durP1;ratioP1;P1;durP2;ratioP2;P2;SDS_P1;SDS_P2;PMS_P1;PMS_P2;Temp;Humidity;BMP_temperature;BMP_pressure;BME280_temperature;BME280_humidity;BME280_pressure;Samples;Min_cycle;Max_cycle;Signal;HPM_P1;HPM_P2
2022/08/05 00:02:23;;;;;;;3.75;2.28;;;19.10;99.90;;;;;;5033446;28;20053;-77
2022/08/05 00:04:49;;;;;;;7.25;3.33;;;19.10;99.90;;;;;;5034061;28;20041;-78
2022/08/05 00:07:15;;;;;;;7.50;2.75;;;19.00;99.90;;;;;;5033526;28;20045;-80
2022/08/05 00:09:40;;;;;;;4.55;3.30;;;19.00;99.90;;;;;;5034037;28;20472;-78
2022/08/05 00:12:06;;;;;;;4.00;1.90;;;19.00;99.90;;;;;;5032755;28;20057;-78
2022/08/05 00:14:32;;;;;;;5.30;2.28;;;19.00;99.90;;;;;;5033843;28;20080;-78
2022/08/05 00:16:58;;;;;;;10.18;2.50;;;19.00;99.90;;;;;;5033723;28;20057;-78
2022/08/05 00:19:24;;;;;;;2.80;2.20;;;19.00;99.90;;;;;;5034138;28;20053;-79
2022/08/05 00:21:50;;;;;;;4.82;2.42;;;19.00;99.90;;;;;;5033716;28;20088;-78
2022/08/05 00:24:16;;;;;;;5.38;2.50;;;19.00;99.90;;;;;;5033784;28;20053;-80
2022/08/05 00:26:42;;;;;;;8.52;2.50;;;18.90;99.90;;;;;;5033456;28;20041;-79
2022/08/05 00:29:07;;;;;;;2.97;1.90;;;18.90;99.90;;;;;;5033796;28;20049;-79
2022/08/05 00:31:33;;;;;;;2.22;1.88;;;18.90;99.90;;;;;;5033657;28;20041;-78
2022/08/05 00:33:59;;;;;;;2.92;1.88;;;18.90;99.90;;;;;;5033838;28;20053;-79
2022/08/05 00:36:25;;;;;;;4.13;2.60;;;18.90;99.90;;;;;;5033597;28;20053;-78
2022/08/05 00:38:51;;;;;;;2.95;2.10;;;18.90;99.90;;;;;;5034031;28;20045;-79
2022/08/05 00:41:30;;;;;;;2.65;2.28;;;18.90;99.90;;;;;;5034011;28;20061;-78
2022/08/05 00:43:56;;;;;;;2.35;2.15;;;18.90;99.90;;;;;;5033960;28;20080;-78
2022/08/05 00:46:22;;;;;;;4.22;2.47;;;18.80;99.90;;;;;;5033283;28;20461;-78
2022/08/05 00:48:48;;;;;;;5.80;2.58;;;18.80;99.90;;;;;;5033408;28;20042;-78
2022/08/05 00:51:14;;;;;;;4.32;2.45;;;18.90;99.90;;;;;;5033028;28;20042;-79
2022/08/05 00:53:40;;;;;;;10.30;3.13;;;18.90;99.90;;;;;;5033487;28;20071;-78
2022/08/05 00:56:06;;;;;;;3.53;1.92;;;18.90;99.90;;;;;;5033516;28;20497;-80
2022/08/05 00:58:32;;;;;;;8.65;3.58;;;19.00;99.90;;;;;;5032221;28;20482;-78
2022/08/05 01:00:58;;;;;;;4.93;2.00;;;19.00;99.90;;;;;;5033059;28;20136;-78
2022/08/05 01:03:24;;;;;;;3.50;2.47;;;19.00;99.90;;;;;;5033092;28;20041;-78
2022/08/05 01:05:51;;;;;;;4.00;2.70;;;19.10;99.90;;;;;;5032936;28;20041;-79
2022/08/05 01:08:17;;;;;;;3.40;1.88;;;19.10;99.90;;;;;;5033093;28;20130;-78
2022/08/05 01:10:49;;;;;;;4.45;1.85;;;19.10;99.90;;;;;;5033320;28;20041;-78
2022/08/05 01:13:37;;;;;;;3.55;1.95;;;19.10;99.90;;;;;;5032961;28;20050;-77
2022/08/05 01:16:06;;;;;;;3.70;2.00;;;19.20;99.90;;;;;;5033572;28;20056;-78
2022/08/05 01:18:36;;;;;;;3.38;2.28;;;19.20;99.90;;;;;;5031784;28;20604;-78
2022/08/05 01:21:02;;;;;;;2.03;1.70;;;19.20;99.90;;;;;;5033338;28;20038;-78
2022/08/05 01:23:32;;;;;;;3.58;2.47;;;19.20;99.90;;;;;;5032711;28;20531;-78
2022/08/05 01:26:30;;;;;;;2.95;2.33;;;19.20;99.90;;;;;;5033164;28;20049;-78
2022/08/05 01:29:01;;;;;;;4.00;2.33;;;19.20;99.90;;;;;;5032535;28;20124;-78
2022/08/05 01:31:40;;;;;;;3.25;2.03;;;19.20;99.90;;;;;;5033023;28;20052;-78
2022/08/05 01:34:24;;;;;;;2.83;2.28;;;19.20;99.90;;;;;;5032619;28;20045;-80
2022/08/05 01:36:57;;;;;;;4.50;2.15;;;19.20;99.90;;;;;;5032932;28;20044;-77
2022/08/05 01:39:25;;;;;;;3.70;2.33;;;19.20;99.90;;;;;;5033239;28;20058;-78
2022/08/05 01:41:53;;;;;;;3.60;2.63;;;19.20;99.90;;;;;;5032540;28;20620;-79
2022/08/05 01:44:20;;;;;;;2.90;2.33;;;19.20;99.90;;;;;;5031121;28;20411;-78
2022/08/05 01:46:46;;;;;;;2.80;2.08;;;19.20;99.90;;;;;;5032256;28;20050;-79
2022/08/05 01:49:19;;;;;;;3.25;2.40;;;19.20;99.90;;;;;;5032595;28;20045;-79
2022/08/05 01:51:46;;;;;;;5.53;2.38;;;19.20;99.90;;;;;;5032733;28;20049;-78
2022/08/05 01:54:14;;;;;;;2.75;2.25;;;19.10;99.90;;;;;;5032251;28;20096;-78
2022/08/05 01:56:42;;;;;;;4.15;2.40;;;19.10;99.90;;;;;;5032661;28;20046;-77
2022/08/05 01:59:14;;;;;;;4.38;2.05;;;19.00;99.90;;;;;;5032278;28;20524;-78
2022/08/05 02:01:40;;;;;;;3.83;2.13;;;19.10;99.90;;;;;;5032604;28;20053;-78
2022/08/05 02:04:08;;;;;;;5.47;2.67;;;19.00;99.90;;;;;;5032119;28;20341;-79
2022/08/05 02:06:33;;;;;;;8.27;2.58;;;19.00;99.90;;;;;;5033520;28;20045;-78
2022/08/05 02:09:00;;;;;;;6.75;2.20;;;19.00;99.90;;;;;;5036641;28;20050;-77
2022/08/05 02:11:31;;;;;;;2.45;2.25;;;19.00;99.90;;;;;;5036164;28;20175;-79
2022/08/05 02:14:09;;;;;;;2.70;2.05;;;19.00;99.90;;;;;;5036282;28;20081;-78
2022/08/05 02:16:53;;;;;;;2.92;2.30;;;18.90;99.90;;;;;;5036680;28;20128;-78
2022/08/05 02:19:21;;;;;;;4.65;2.50;;;18.90;99.90;;;;;;5036623;28;20045;-78
2022/08/05 02:21:57;;;;;;;3.78;2.35;;;18.90;99.90;;;;;;5034946;28;20045;-78
2022/08/05 02:24:30;;;;;;;3.30;1.90;;;18.90;99.90;;;;;;5036124;28;20049;-79
2022/08/05 02:27:00;;;;;;;6.03;2.58;;;18.90;99.90;;;;;;5035360;28;20049;-79
2022/08/05 02:29:27;;;;;;;3.95;2.50;;;18.90;99.90;;;;;;5034982;28;20053;-78
2022/08/05 02:31:56;;;;;;;3.35;2.30;;;18.90;99.90;;;;;;5036332;28;20068;-78
2022/08/05 02:34:23;;;;;;;4.25;2.10;;;18.90;99.90;;;;;;5035714;28;20049;-78
2022/08/05 02:36:53;;;;;;;2.95;1.83;;;18.90;99.90;;;;;;5036006;28;20119;-79
2022/08/05 02:39:21;;;;;;;2.90;2.30;;;18.80;99.90;;;;;;5036349;28;20049;-78
2022/08/05 02:41:47;;;;;;;2.78;2.05;;;19.00;99.90;;;;;;5035730;28;20060;-79
2022/08/05 02:44:13;;;;;;;4.47;2.15;;;19.00;99.90;;;;;;5035774;28;20056;-78
2022/08/05 02:46:41;;;;;;;3.30;2.25;;;18.90;99.90;;;;;;5035599;28;20053;-78
2022/08/05 02:49:09;;;;;;;3.50;2.28;;;19.00;99.90;;;;;;5035520;28;20057;-78
2022/08/05 02:51:36;;;;;;;5.15;2.45;;;19.00;99.90;;;;;;5035915;28;20049;-79
2022/08/05 02:54:04;;;;;;;3.65;2.47;;;19.00;99.90;;;;;;5035687;28;20053;-79
2022/08/05 02:56:31;;;;;;;3.25;1.85;;;19.00;99.90;;;;;;5035667;28;20081;-78
2022/08/05 02:58:58;;;;;;;2.50;1.83;;;19.00;99.90;;;;;;5035390;28;20050;-79
2022/08/05 03:01:25;;;;;;;2.40;1.77;;;18.90;99.90;;;;;;5035339;28;20045;-79
2022/08/05 03:03:58;;;;;;;2.45;1.92;;;18.90;99.90;;;;;;5035397;28;20213;-79
2022/08/05 03:06:26;;;;;;;1.73;1.63;;;18.90;99.90;;;;;;5035581;28;20568;-78
2022/08/05 03:08:53;;;;;;;5.07;2.25;;;18.90;99.90;;;;;;5035301;28;20045;-78
2022/08/05 03:11:21;;;;;;;2.42;2.20;;;18.90;99.90;;;;;;5035290;28;20084;-79
2022/08/05 03:13:47;;;;;;;3.40;2.15;;;18.90;99.90;;;;;;5035679;28;20053;-79
2022/08/05 03:16:13;;;;;;;2.22;2.03;;;18.90;99.90;;;;;;5035617;28;20046;-78
2022/08/05 03:18:39;;;;;;;7.95;1.92;;;18.90;99.90;;;;;;5035001;28;20092;-78
2022/08/05 03:21:04;;;;;;;3.03;1.70;;;18.90;99.90;;;;;;5035029;28;20045;-79
2022/08/05 03:23:32;;;;;;;3.85;2.53;;;18.80;99.90;;;;;;5034811;28;20491;-79
2022/08/05 03:25:58;;;;;;;3.50;2.03;;;18.80;99.90;;;;;;5033894;28;20503;-77
2022/08/05 03:28:24;;;;;;;5.30;2.20;;;18.80;99.90;;;;;;5034851;28;20138;-78
2022/08/05 03:30:50;;;;;;;3.53;1.60;;;18.80;99.90;;;;;;5035133;28;20045;-78
2022/08/05 03:33:16;;;;;;;3.25;1.48;;;18.80;99.90;;;;;;5034780;28;20045;-79
2022/08/05 03:35:47;;;;;;;2.50;1.90;;;18.80;99.90;;;;;;5035040;28;20101;-78
2022/08/05 03:38:14;;;;;;;2.10;1.90;;;18.80;99.90;;;;;;5034674;28;20057;-77
2022/08/05 03:40:43;;;;;;;3.45;2.42;;;18.80;99.90;;;;;;5034508;28;20132;-77
2022/08/05 03:43:09;;;;;;;3.50;2.33;;;18.80;99.90;;;;;;5034474;28;20056;-79
2022/08/05 03:45:35;;;;;;;2.15;1.95;;;18.70;99.90;;;;;;5033511;28;20037;-80
2022/08/05 03:48:00;;;;;;;3.20;2.22;;;18.70;99.90;;;;;;5033590;28;20045;-77
2022/08/05 03:50:50;;;;;;;2.65;2.45;;;18.70;99.90;;;;;;5034928;28;20061;-77
2022/08/05 03:53:33;;;;;;;3.58;2.47;;;18.80;99.90;;;;;;5033075;28;20046;-78
2022/08/05 03:56:06;;;;;;;4.57;2.53;;;18.70;99.90;;;;;;5034659;28;20049;-77
2022/08/05 03:58:35;;;;;;;4.72;2.28;;;18.70;99.90;;;;;;5034247;28;20056;-79
2022/08/05 04:01:03;;;;;;;3.58;2.30;;;18.70;99.90;;;;;;5034554;28;20045;-77
2022/08/05 04:03:34;;;;;;;4.18;2.40;;;18.70;99.90;;;;;;5033765;28;20041;-77
2022/08/05 04:06:00;;;;;;;3.33;2.47;;;18.60;99.90;;;;;;5033994;28;20045;-78
2022/08/05 04:08:29;;;;;;;4.10;2.60;;;18.60;99.90;;;;;;5033890;28;20099;-78
2022/08/05 04:10:56;;;;;;;4.38;2.58;;;18.60;99.90;;;;;;5037977;28;20049;-80
2022/08/05 04:13:22;;;;;;;3.35;2.67;;;18.60;99.90;;;;;;5053298;28;20030;-80
2022/08/05 04:15:49;;;;;;;3.22;2.35;;;18.60;99.90;;;;;;5055253;28;20060;-80
2022/08/05 04:18:15;;;;;;;5.03;2.50;;;18.60;99.90;;;;;;5055553;28;20159;-80
2022/08/05 04:20:41;;;;;;;4.35;2.28;;;18.50;99.90;;;;;;5055110;28;20045;-80
2022/08/05 04:23:08;;;;;;;5.30;3.15;;;18.50;99.90;;;;;;5055373;28;20067;-80
2022/08/05 04:25:34;;;;;;;3.47;2.60;;;18.50;99.90;;;;;;5054621;28;20121;-80
2022/08/05 04:28:00;;;;;;;4.25;2.85;;;18.50;99.90;;;;;;5055220;28;20029;-80
2022/08/05 04:30:26;;;;;;;3.75;2.88;;;18.50;99.90;;;;;;5041892;28;20356;-80
2022/08/05 04:32:51;;;;;;;3.60;2.65;;;18.50;99.90;;;;;;5033469;28;20113;-81
2022/08/05 04:35:17;;;;;;;3.20;2.42;;;18.60;99.90;;;;;;5033249;28;20503;-81
2022/08/05 04:37:43;;;;;;;5.43;2.97;;;18.60;99.90;;;;;;5033110;28;20397;-82
2022/08/05 04:40:09;;;;;;;3.90;2.78;;;18.60;99.90;;;;;;5033033;28;20072;-81
2022/08/05 04:42:35;;;;;;;5.72;2.53;;;18.60;99.90;;;;;;5033126;28;20041;-81
2022/08/05 04:45:01;;;;;;;3.75;2.17;;;18.60;99.90;;;;;;5032286;28;20176;-81
2022/08/05 04:47:26;;;;;;;3.88;2.90;;;18.60;99.90;;;;;;5032148;28;20053;-81
2022/08/05 04:49:52;;;;;;;2.50;2.30;;;18.70;99.90;;;;;;5033285;28;20050;-81
2022/08/05 04:52:18;;;;;;;6.07;3.13;;;18.70;99.90;;;;;;5033049;28;20391;-80
2022/08/05 04:54:43;;;;;;;3.10;2.90;;;18.70;99.90;;;;;;5031353;28;20084;-81
2022/08/05 04:57:09;;;;;;;3.95;3.00;;;18.70;99.90;;;;;;5031696;28;20116;-81
2022/08/05 04:59:35;;;;;;;3.38;2.95;;;18.70;99.90;;;;;;5032935;28;20037;-81
2022/08/05 05:02:00;;;;;;;3.53;2.30;;;18.70;99.90;;;;;;5032742;28;20049;-81
2022/08/05 05:04:26;;;;;;;4.28;3.83;;;18.70;99.90;;;;;;5032970;28;20049;-80
2022/08/05 05:06:52;;;;;;;4.05;3.33;;;18.70;99.90;;;;;;5032757;28;20034;-81
2022/08/05 05:09:17;;;;;;;4.38;3.13;;;18.70;99.90;;;;;;5032803;28;20057;-81
2022/08/05 05:11:43;;;;;;;6.55;2.83;;;18.70;99.90;;;;;;5031421;28;20037;-81
2022/08/05 05:14:09;;;;;;;3.65;2.67;;;18.70;99.90;;;;;;5032617;28;20050;-81
2022/08/05 05:16:34;;;;;;;6.60;3.38;;;18.70;99.90;;;;;;5031931;28;20089;-82
2022/08/05 05:19:00;;;;;;;3.90;3.17;;;18.70;99.90;;;;;;5032391;28;20045;-81
2022/08/05 05:21:26;;;;;;;3.75;2.85;;;18.70;99.90;;;;;;5032396;28;20052;-82
2022/08/05 05:23:51;;;;;;;3.20;2.40;;;18.80;99.90;;;;;;5032228;28;20053;-81
2022/08/05 05:26:17;;;;;;;4.65;3.30;;;18.80;99.90;;;;;;5031519;28;20038;-81
2022/08/05 05:28:43;;;;;;;4.00;3.28;;;18.80;99.90;;;;;;5031510;28;20570;-81
2022/08/05 05:31:08;;;;;;;5.30;3.95;;;18.90;99.90;;;;;;5031200;28;20473;-81
2022/08/05 05:33:34;;;;;;;3.42;3.13;;;18.90;99.90;;;;;;5032590;28;20487;-81
2022/08/05 05:36:00;;;;;;;5.97;3.83;;;18.90;99.90;;;;;;5032067;28;20442;-81
2022/08/05 05:38:25;;;;;;;2.70;2.22;;;18.90;99.90;;;;;;5031325;28;20490;-80
2022/08/05 05:40:51;;;;;;;5.43;3.22;;;18.90;99.90;;;;;;5031180;28;20537;-81
2022/08/05 05:43:18;;;;;;;3.47;3.08;;;18.90;99.90;;;;;;5032152;28;20124;-81
2022/08/05 05:45:43;;;;;;;5.35;3.33;;;19.00;99.90;;;;;;5032136;28;20041;-81
2022/08/05 05:48:09;;;;;;;3.70;3.30;;;18.90;99.90;;;;;;5031932;28;20045;-82
2022/08/05 05:50:35;;;;;;;4.15;3.15;;;18.90;99.90;;;;;;5031847;28;20049;-80
2022/08/05 05:53:01;;;;;;;5.78;3.10;;;18.90;99.90;;;;;;5031863;28;20053;-80
2022/08/05 05:55:26;;;;;;;3.25;2.95;;;18.80;99.90;;;;;;5032025;28;20110;-80
2022/08/05 05:57:52;;;;;;;4.78;3.10;;;18.80;99.90;;;;;;5032247;28;20049;-80
2022/08/05 06:00:20;;;;;;;4.53;3.17;;;18.90;99.90;;;;;;5032211;28;20531;-80
2022/08/05 06:02:46;;;;;;;7.22;3.97;;;18.80;99.90;;;;;;5031967;28;20045;-80
2022/08/05 06:05:14;;;;;;;4.68;3.10;;;18.90;99.90;;;;;;5032510;28;20554;-80
2022/08/05 06:07:40;;;;;;;3.70;3.15;;;18.90;99.90;;;;;;5032038;28;20046;-81
2022/08/05 06:10:08;;;;;;;9.73;3.50;;;18.90;99.90;;;;;;5032348;28;20069;-81
2022/08/05 06:12:35;;;;;;;5.28;3.30;;;19.00;99.90;;;;;;5032684;28;20057;-81
2022/08/05 06:15:01;;;;;;;4.50;3.15;;;19.00;99.90;;;;;;5031638;28;20057;-79
2022/08/05 06:17:27;;;;;;;5.53;3.50;;;19.00;99.90;;;;;;5032450;28;20049;-80
2022/08/05 06:19:53;;;;;;;3.40;2.88;;;19.10;99.90;;;;;;5032403;28;20037;-80
2022/08/05 06:22:27;;;;;;;4.35;3.08;;;19.20;99.90;;;;;;5032183;28;20049;-77
2022/08/05 06:24:53;;;;;;;3.60;2.75;;;19.40;99.90;;;;;;5031273;28;20052;-78
2022/08/05 06:27:19;;;;;;;6.07;3.22;;;19.60;99.90;;;;;;5031953;28;20468;-78
2022/08/05 06:29:45;;;;;;;4.07;2.75;;;19.80;99.90;;;;;;5031986;28;20076;-78
2022/08/05 06:32:11;;;;;;;8.55;3.25;;;19.80;99.90;;;;;;5032435;28;20084;-78
2022/08/05 06:34:37;;;;;;;4.82;3.05;;;19.80;99.90;;;;;;5031869;28;20049;-77
2022/08/05 06:37:03;;;;;;;3.28;2.65;;;19.80;99.90;;;;;;5032001;28;20040;-79
2022/08/05 06:39:28;;;;;;;4.00;2.65;;;19.80;99.90;;;;;;5031792;28;20045;-79
2022/08/05 06:42:00;;;;;;;2.75;1.83;;;20.00;99.90;;;;;;5031964;28;20158;-81
2022/08/05 06:44:26;;;;;;;2.92;2.47;;;20.10;99.90;;;;;;5031843;28;20068;-78
2022/08/05 06:46:52;;;;;;;2.97;1.98;;;20.30;99.90;;;;;;5030496;28;20041;-77
2022/08/05 06:49:18;;;;;;;2.17;1.42;;;20.60;99.90;;;;;;5031978;28;20104;-81
2022/08/05 06:51:43;;;;;;;2.03;1.35;;;20.80;99.90;;;;;;5031716;28;20127;-80
2022/08/05 06:54:09;;;;;;;4.30;1.60;;;21.30;99.90;;;;;;5033743;28;20115;-78
2022/08/05 06:56:35;;;;;;;5.25;1.85;;;22.30;99.90;;;;;;5035592;28;20553;-80
2022/08/05 06:59:02;;;;;;;2.05;1.20;;;23.10;99.90;;;;;;5035008;28;20050;-78
2022/08/05 07:01:28;;;;;;;2.20;2.00;;;23.10;99.90;;;;;;5035121;28;20045;-78
2022/08/05 07:03:53;;;;;;;1.20;1.10;;;22.80;99.90;;;;;;5018142;28;20053;-80
2022/08/05 07:06:19;;;;;;;3.00;1.77;;;23.30;99.90;;;;;;5035000;28;20045;-78
2022/08/05 07:08:45;;;;;;;1.98;1.52;;;23.20;99.90;;;;;;5034944;28;20080;-79
2022/08/05 07:11:11;;;;;;;1.67;1.35;;;23.00;99.90;;;;;;5034977;28;20045;-78
2022/08/05 07:19:05;;;;;;;2.47;1.50;;;22.80;99.90;;;;;;5035696;28;20100;-80
2022/08/05 07:21:31;;;;;;;1.50;1.40;;;22.50;99.90;;;;;;5034527;28;20067;-78
2022/08/05 07:23:57;;;;;;;3.17;1.42;;;22.50;99.90;;;;;;5035759;28;20451;-77
2022/08/05 07:26:22;;;;;;;6.15;1.42;;;23.40;99.90;;;;;;5036518;28;20154;-77
2022/08/05 07:28:51;;;;;;;2.28;1.20;;;24.50;99.90;;;;;;5035502;28;20057;-77
2022/08/05 07:31:17;;;;;;;1.58;1.13;;;25.00;99.40;;;;;;5035661;28;20052;-77
2022/08/05 07:33:43;;;;;;;1.75;1.25;;;24.80;97.60;;;;;;5036050;28;20057;-77
2022/08/05 07:36:09;;;;;;;2.13;1.00;;;24.20;98.20;;;;;;5035134;28;20351;-79
2022/08/05 07:38:36;;;;;;;1.98;1.30;;;23.90;98.80;;;;;;5035973;28;20053;-78
2022/08/05 07:41:04;;;;;;;1.42;1.17;;;23.60;99.10;;;;;;5035980;28;20045;-77
2022/08/05 07:43:29;;;;;;;1.88;1.20;;;23.30;99.50;;;;;;5036058;28;20066;-77
2022/08/05 07:45:55;;;;;;;1.67;1.33;;;23.30;99.50;;;;;;5035187;28;20481;-77
2022/08/05 07:48:20;;;;;;;1.80;0.98;;;23.30;99.40;;;;;;5035818;28;20149;-78
2022/08/05 07:50:46;;;;;;;2.15;1.27;;;23.20;99.50;;;;;;5035411;28;20555;-80
2022/08/05 07:53:12;;;;;;;1.20;1.10;;;23.10;99.40;;;;;;5034888;28;20454;-79
2022/08/05 07:55:37;;;;;;;1.20;1.10;;;22.80;99.10;;;;;;5035129;28;20068;-79
2022/08/05 07:58:04;;;;;;;2.65;1.05;;;22.50;99.00;;;;;;5034415;28;20059;-78
2022/08/05 08:00:30;;;;;;;3.78;1.27;;;22.30;99.20;;;;;;5034519;28;20078;-78
2022/08/05 08:02:56;;;;;;;4.40;1.13;;;22.30;99.10;;;;;;5034136;28;20474;-80
2022/08/05 08:05:21;;;;;;;1.83;0.98;;;22.30;98.80;;;;;;5033620;28;20076;-78
2022/08/05 08:07:47;;;;;;;1.02;1.00;;;22.40;98.60;;;;;;5034130;28;20520;-79
2022/08/05 08:10:13;;;;;;;1.17;1.00;;;22.60;98.30;;;;;;5033298;28;20118;-78
2022/08/05 08:12:38;;;;;;;1.67;0.93;;;22.90;98.30;;;;;;5032429;28;20072;-77
2022/08/05 08:15:06;;;;;;;2.53;1.23;;;23.10;98.40;;;;;;5032782;28;20124;-79
2022/08/05 08:17:32;;;;;;;2.30;0.98;;;23.40;97.90;;;;;;5034454;28;20502;-81
2022/08/05 08:19:58;;;;;;;1.73;1.00;;;23.50;97.80;;;;;;5034173;28;20057;-80
2022/08/05 08:22:26;;;;;;;1.10;1.10;;;23.80;97.70;;;;;;5033875;28;20468;-79
2022/08/05 08:24:52;;;;;;;1.73;1.63;;;24.60;97.10;;;;;;5033228;28;20057;-80
2022/08/05 08:27:18;;;;;;;1.35;1.25;;;25.60;96.30;;;;;;5032797;28;20492;-78
2022/08/05 08:29:44;;;;;;;2.30;1.00;;;27.10;95.30;;;;;;5033634;28;20106;-79
2022/08/05 08:32:09;;;;;;;3.10;1.15;;;28.10;93.60;;;;;;5033628;28;20038;-79
2022/08/05 08:34:35;;;;;;;0.57;0.57;;;28.10;92.70;;;;;;5033546;28;20041;-79
2022/08/05 08:37:01;;;;;;;2.13;0.90;;;28.00;91.80;;;;;;5033561;28;20049;-80
2022/08/05 08:39:27;;;;;;;2.03;0.80;;;27.40;91.30;;;;;;5033763;28;20489;-79
2022/08/05 08:41:55;;;;;;;0.70;0.70;;;27.10;91.20;;;;;;5033895;28;20045;-77
2022/08/05 08:44:23;;;;;;;2.05;0.77;;;26.70;90.90;;;;;;5033273;28;20133;-78
2022/08/05 08:46:49;;;;;;;2.95;1.00;;;27.00;90.50;;;;;;5033434;28;20049;-78
2022/08/05 08:49:17;;;;;;;0.70;0.68;;;27.70;90.50;;;;;;5033273;28;20052;-80
2022/08/05 08:51:47;;;;;;;2.50;1.02;;;28.30;90.50;;;;;;5033187;28;20041;-74
2022/08/05 08:54:13;;;;;;;1.67;0.70;;;28.20;89.10;;;;;;5033115;28;20053;-76
2022/08/05 08:56:42;;;;;;;3.25;1.02;;;27.60;88.50;;;;;;5033818;28;20049;-77
2022/08/05 08:59:08;;;;;;;4.03;1.15;;;28.00;88.90;;;;;;5033138;28;20076;-76
2022/08/05 09:01:33;;;;;;;0.73;0.70;;;28.10;85.20;;;;;;5033126;28;20128;-74
2022/08/05 09:04:00;;;;;;;2.53;0.88;;;27.20;88.00;;;;;;5033050;28;20045;-75
2022/08/05 09:06:28;;;;;;;1.00;0.77;;;26.50;86.30;;;;;;5032750;28;20523;-74
2022/08/05 09:08:54;;;;;;;1.45;0.90;;;25.60;89.00;;;;;;5033353;28;20091;-74
2022/08/05 09:11:20;;;;;;;3.67;0.88;;;24.70;90.50;;;;;;5032999;28;20057;-76
2022/08/05 09:13:46;;;;;;;2.40;1.30;;;24.00;92.50;;;;;;5033177;28;20052;-74
2022/08/05 09:16:12;;;;;;;0.60;0.60;;;24.00;93.30;;;;;;5032644;28;20116;-75
2022/08/05 09:18:38;;;;;;;6.68;1.20;;;24.20;93.00;;;;;;5033241;28;20092;-75
2022/08/05 09:21:04;;;;;;;3.28;0.98;;;24.20;93.40;;;;;;5032684;28;20361;-75
2022/08/05 09:23:30;;;;;;;1.33;1.10;;;24.30;92.20;;;;;;5032720;28;20072;-74
2022/08/05 09:26:10;;;;;;;1.33;0.90;;;25.10;93.00;;;;;;5032699;28;20455;-74
2022/08/05 09:28:38;;;;;;;4.00;1.10;;;25.40;90.10;;;;;;5032796;28;20095;-74
2022/08/05 09:31:10;;;;;;;1.92;0.90;;;25.70;90.60;;;;;;5033140;28;20050;-76
2022/08/05 09:33:59;;;;;;;2.80;1.05;;;26.00;90.10;;;;;;5032839;28;20089;-73
2022/08/05 09:36:57;;;;;;;1.23;0.98;;;25.60;90.50;;;;;;5032726;28;20041;-76
2022/08/05 09:39:23;;;;;;;2.67;1.35;;;25.00;89.40;;;;;;5009987;28;20058;-74
2022/08/05 09:41:57;;;;;;;1.17;0.65;;;25.30;90.70;;;;;;5032252;28;20055;-75
2022/08/05 09:44:40;;;;;;;1.45;0.82;;;25.90;89.50;;;;;;5032502;28;20350;-75
2022/08/05 09:47:17;;;;;;;1.02;0.93;;;25.50;88.10;;;;;;5031887;28;20037;-74
2022/08/05 09:49:48;;;;;;;1.30;0.70;;;25.90;90.10;;;;;;5032242;28;20057;-75
2022/08/05 09:52:27;;;;;;;2.15;0.60;;;26.50;88.40;;;;;;5032242;28;20053;-74
2022/08/05 09:55:00;;;;;;;0.90;0.70;;;27.10;89.10;;;;;;5032551;28;20436;-76
2022/08/05 09:57:32;;;;;;;4.22;0.60;;;26.90;84.60;;;;;;5032285;28;20056;-75
2022/08/05 10:00:16;;;;;;;1.65;0.77;;;26.60;80.80;;;;;;5032538;28;20087;-79
2022/08/05 10:02:44;;;;;;;0.85;0.63;;;27.00;80.50;;;;;;5031841;28;20451;-78
2022/08/05 10:05:17;;;;;;;1.30;0.70;;;27.80;84.70;;;;;;5032164;28;20049;-81
2022/08/05 10:08:00;;;;;;;0.80;0.60;;;27.90;84.50;;;;;;5032087;28;20454;-81
2022/08/05 10:10:38;;;;;;;0.95;0.50;;;27.30;83.00;;;;;;5032097;28;20413;-80
2022/08/05 10:13:05;;;;;;;1.33;0.60;;;27.50;83.30;;;;;;5031960;28;20187;-81
2022/08/05 10:15:36;;;;;;;0.70;0.45;;;27.70;82.90;;;;;;5032316;28;20049;-81
2022/08/05 10:18:14;;;;;;;0.50;0.50;;;28.00;83.00;;;;;;5032312;28;20450;-82
2022/08/05 10:20:46;;;;;;;1.35;0.60;;;28.30;82.60;;;;;;5032067;28;20049;-79
2022/08/05 10:23:27;;;;;;;0.85;0.70;;;27.40;80.80;;;;;;5031986;28;20058;-80
2022/08/05 10:26:05;;;;;;;0.60;0.60;;;27.10;80.00;;;;;;5032521;28;20095;-82
2022/08/05 10:28:31;;;;;;;0.22;0.22;;;26.80;79.10;;;;;;5035352;28;20041;-78
2022/08/05 10:30:58;;;;;;;0.85;0.50;;;27.10;81.30;;;;;;5035952;28;20055;-79
2022/08/05 10:33:28;;;;;;;0.73;0.63;;;27.30;77.60;;;;;;5035695;28;20096;-79
2022/08/05 10:35:55;;;;;;;2.45;0.65;;;27.70;76.90;;;;;;5035784;28;20046;-79
2022/08/05 10:38:23;;;;;;;0.70;0.45;;;28.00;76.50;;;;;;5035742;28;20136;-80
2022/08/05 10:40:48;;;;;;;0.77;0.57;;;28.10;74.50;;;;;;5035686;28;20064;-81
2022/08/05 10:43:32;;;;;;;1.20;0.60;;;27.70;75.80;;;;;;5035543;28;20128;-81
2022/08/05 10:46:01;;;;;;;1.27;0.55;;;27.20;73.50;;;;;;5035846;28;20081;-85
2022/08/05 10:48:34;;;;;;;0.47;0.45;;;27.00;74.90;;;;;;5035738;28;20120;-80
2022/08/05 10:51:03;;;;;;;0.40;0.40;;;27.10;74.00;;;;;;5035961;28;20045;-79
2022/08/05 10:53:41;;;;;;;1.25;0.40;;;27.60;74.80;;;;;;5035440;28;20164;-81
2022/08/05 10:56:09;;;;;;;3.03;0.55;;;27.40;72.40;;;;;;5035846;28;20041;-80
2022/08/05 10:58:35;;;;;;;0.52;0.50;;;27.60;70.10;;;;;;5034988;28;20049;-80
2022/08/05 11:01:05;;;;;;;1.08;0.30;;;27.30;72.20;;;;;;5035650;28;20045;-78
2022/08/05 11:03:32;;;;;;;1.30;0.40;;;27.20;68.20;;;;;;5036132;28;20128;-79
2022/08/05 11:06:08;;;;;;;0.95;0.47;;;27.00;71.40;;;;;;5035227;28;20049;-81
2022/08/05 11:08:34;;;;;;;1.13;0.35;;;26.90;68.20;;;;;;5035304;28;20060;-80
2022/08/05 11:11:35;;;;;;;1.83;0.43;;;26.60;67.80;;;;;;5035834;28;20049;-81
2022/08/05 11:14:02;;;;;;;0.50;0.30;;;26.30;63.00;;;;;;4993751;28;20053;-81
2022/08/05 11:16:28;;;;;;;1.42;0.50;;;26.20;66.50;;;;;;5027121;28;20049;-81
2022/08/05 11:19:25;;;;;;;2.75;0.50;;;25.70;64.80;;;;;;5034988;28;20050;-82
2022/08/05 11:21:53;;;;;;;0.57;0.43;;;25.60;63.40;;;;;;5033779;28;20049;-77
2022/08/05 11:24:20;;;;;;;0.63;0.35;;;25.60;65.00;;;;;;5034741;28;20111;-80
2022/08/05 11:26:47;;;;;;;0.82;0.47;;;25.40;67.10;;;;;;5034537;28;20045;-79
2022/08/05 11:29:36;;;;;;;0.85;0.40;;;25.60;65.80;;;;;;5035034;28;20049;-81
2022/08/05 11:32:26;;;;;;;0.55;0.35;;;25.70;68.20;;;;;;5035442;28;20083;-78
2022/08/05 11:34:52;;;;;;;0.43;0.30;;;25.40;67.80;;;;;;5035279;28;20080;-81
2022/08/05 11:37:52;;;;;;;0.85;0.38;;;25.40;66.90;;;;;;5035657;28;20045;-79
2022/08/05 11:40:18;;;;;;;0.30;0.30;;;25.60;67.60;;;;;;5034064;28;20045;-83
2022/08/05 11:42:45;;;;;;;0.32;0.32;;;25.40;66.10;;;;;;5034306;28;20478;-79
2022/08/05 11:45:11;;;;;;;1.60;0.50;;;24.90;67.40;;;;;;5035288;28;20045;-79
2022/08/05 11:47:37;;;;;;;0.50;0.43;;;25.10;69.30;;;;;;5035023;28;20113;-77
2022/08/05 11:50:04;;;;;;;0.65;0.63;;;25.00;70.40;;;;;;5034295;28;20049;-80
2022/08/05 11:52:30;;;;;;;0.40;0.40;;;24.40;69.90;;;;;;5035590;28;20049;-80
2022/08/05 11:54:57;;;;;;;0.63;0.35;;;24.40;72.00;;;;;;5037084;28;20067;-80
2022/08/05 11:57:30;;;;;;;0.50;0.50;;;24.40;72.60;;;;;;5036185;28;20053;-80
2022/08/05 11:59:56;;;;;;;0.52;0.30;;;24.30;73.30;;;;;;5018575;28;20099;-81
2022/08/05 12:02:32;;;;;;;2.85;0.60;;;23.90;73.50;;;;;;5034782;28;20483;-79
2022/08/05 12:05:02;;;;;;;1.15;0.80;;;23.60;73.90;;;;;;5032973;28;20048;-79
2022/08/05 12:07:34;;;;;;;1.33;0.60;;;23.60;75.20;;;;;;5035023;28;20046;-82
2022/08/05 12:10:01;;;;;;;2.53;0.65;;;23.50;75.90;;;;;;5034906;28;20111;-82
2022/08/05 12:12:28;;;;;;;2.03;0.50;;;23.70;76.30;;;;;;5034391;28;20117;-83
2022/08/05 12:14:54;;;;;;;1.13;0.60;;;23.40;73.30;;;;;;5033650;28;20053;-80
2022/08/05 12:17:20;;;;;;;0.40;0.40;;;23.10;74.70;;;;;;5033959;28;20112;-82
2022/08/05 12:19:52;;;;;;;1.17;1.05;;;22.70;76.50;;;;;;5034661;28;20118;-83
2022/08/05 12:22:20;;;;;;;1.23;0.93;;;22.70;75.90;;;;;;5033390;28;20081;-81
2022/08/05 12:24:49;;;;;;;2.38;0.50;;;22.90;73.90;;;;;;5033671;28;20445;-83
2022/08/05 12:27:22;;;;;;;2.63;0.95;;;23.30;74.90;;;;;;5033427;28;20053;-82
2022/08/05 12:30:09;;;;;;;3.22;0.50;;;23.50;73.50;;;;;;5034254;28;20045;-82
2022/08/05 12:32:54;;;;;;;0.77;0.75;;;23.70;76.20;;;;;;5033630;28;20045;-81
2022/08/05 12:35:22;;;;;;;0.95;0.68;;;23.60;75.40;;;;;;5034035;28;20045;-81
2022/08/05 12:37:48;;;;;;;0.77;0.55;;;23.50;75.30;;;;;;5033473;28;20053;-83
2022/08/05 12:40:15;;;;;;;1.98;0.65;;;23.70;75.00;;;;;;5032577;28;20476;-81
2022/08/05 12:42:41;;;;;;;6.43;1.63;;;23.70;74.20;;;;;;5033716;28;20133;-81
2022/08/05 12:45:08;;;;;;;4.78;0.80;;;23.50;75.50;;;;;;5033760;28;20077;-82
2022/08/05 12:47:34;;;;;;;1.75;0.43;;;23.60;76.20;;;;;;5033335;28;20045;-82
2022/08/05 12:50:14;;;;;;;0.50;0.50;;;23.80;75.60;;;;;;5031419;28;20394;-84
2022/08/05 12:52:40;;;;;;;2.33;1.02;;;24.00;78.70;;;;;;5033298;28;20041;-85
2022/08/05 12:55:20;;;;;;;1.20;0.80;;;23.40;79.80;;;;;;5032791;28;20133;-82
2022/08/05 12:57:46;;;;;;;1.13;0.45;;;23.60;80.00;;;;;;5032894;28;20454;-80
2022/08/05 13:00:31;;;;;;;3.50;0.88;;;23.50;79.00;;;;;;5032120;28;20052;-81
2022/08/05 13:02:57;;;;;;;2.90;0.80;;;23.50;77.90;;;;;;5032659;28;20471;-80